Terminal Aerodrome Forecast
Issued by NWS

Current Version | Previous Version | Text Only | Print | Product List | Glossary On
Versions: 1 2 3 4 5 6 7 8 9 10 11
195
FTUS43 KICT 240520
TAFRSL
TAF
KRSL 240520Z 2406/2506 16014KT P6SM SCT250 WS015/19045KT
     FM240900 17017KT P6SM SCT250 WS015/20055KT
     FM241400 19028G40KT P6SM SCT250
     FM241800 20018G26KT P6SM FEW250
     FM250000 19010KT P6SM FEW200=

USA.gov is the U.S. government's official web portal to all federal, state and local government web resources and services.